Time;durP1;ratioP1;P1;durP2;ratioP2;P2;SDS_P1;SDS_P2;PMS_P1;PMS_P2;Temp;Humidity;BMP_temperature;BMP_pressure;BME280_temperature;BME280_humidity;BME280_pressure;Samples;Min_cycle;Max_cycle;Signal;HPM_P1;HPM_P2
2023/06/23 00:01:34;;;;;;;10.80;7.40;;;19.90;99.90;;;;;;5074486;28;20291;-84
2023/06/23 00:04:01;;;;;;;11.17;8.00;;;19.80;99.90;;;;;;5095923;28;20190;-83
2023/06/23 00:06:28;;;;;;;11.33;7.63;;;19.80;99.90;;;;;;5077506;28;20217;-83
2023/06/23 00:08:55;;;;;;;12.00;7.73;;;19.80;99.90;;;;;;5077309;28;20201;-83
2023/06/23 00:11:22;;;;;;;11.20;7.43;;;19.80;99.90;;;;;;5077231;28;20248;-83
2023/06/23 00:13:49;;;;;;;12.00;8.17;;;19.80;99.90;;;;;;5095499;28;20192;-82
2023/06/23 00:16:16;;;;;;;10.90;7.97;;;19.80;99.90;;;;;;5077309;28;20213;-83
2023/06/23 00:18:43;;;;;;;11.97;8.50;;;19.80;99.90;;;;;;5077416;28;20710;-83
2023/06/23 00:21:11;;;;;;;13.13;8.03;;;19.70;99.90;;;;;;5043794;28;20245;-82
2023/06/23 00:23:39;;;;;;;10.47;7.93;;;19.70;99.90;;;;;;5077086;28;20197;-83
2023/06/23 00:26:07;;;;;;;10.00;7.50;;;19.60;99.90;;;;;;5077002;28;20700;-83
2023/06/23 00:28:35;;;;;;;12.87;8.03;;;19.60;99.90;;;;;;5077276;28;20213;-84
2023/06/23 00:31:02;;;;;;;12.43;8.03;;;19.60;99.90;;;;;;5076926;28;20684;-82
2023/06/23 00:33:29;;;;;;;11.27;7.70;;;19.60;99.90;;;;;;5076916;28;20663;-83
2023/06/23 00:35:56;;;;;;;10.40;7.60;;;19.50;99.90;;;;;;5094822;28;20308;-83
2023/06/23 00:38:25;;;;;;;12.70;8.00;;;19.50;99.90;;;;;;5077165;28;20744;-84
2023/06/23 00:40:53;;;;;;;9.83;7.77;;;19.50;99.90;;;;;;5076516;28;20245;-85
2023/06/23 00:43:20;;;;;;;10.77;8.17;;;19.40;99.90;;;;;;5076823;28;20649;-85
2023/06/23 00:45:49;;;;;;;12.90;8.10;;;19.40;99.90;;;;;;5076354;28;20221;-84
2023/06/23 00:48:16;;;;;;;11.73;7.53;;;19.40;99.90;;;;;;5076788;28;20213;-84
2023/06/23 00:50:43;;;;;;;13.77;8.30;;;19.40;99.90;;;;;;5076313;28;20300;-84
2023/06/23 00:53:11;;;;;;;11.03;8.00;;;19.40;99.90;;;;;;5075980;28;20565;-84
2023/06/23 00:55:39;;;;;;;12.00;8.30;;;19.30;99.90;;;;;;5094709;28;20210;-85
2023/06/23 00:58:08;;;;;;;11.73;7.73;;;19.30;99.90;;;;;;5059967;28;20196;-84
2023/06/23 01:00:35;;;;;;;11.70;8.10;;;19.30;99.90;;;;;;5059443;28;20309;-84
2023/06/23 01:03:03;;;;;;;12.30;8.17;;;19.30;99.90;;;;;;5076304;28;20684;-84
2023/06/23 01:05:35;;;;;;;12.17;8.20;;;19.20;99.90;;;;;;5094206;28;20736;-84
2023/06/23 01:08:17;;;;;;;12.53;8.37;;;19.20;99.90;;;;;;5076322;28;20248;-83
2023/06/23 01:10:51;;;;;;;11.40;8.27;;;19.20;99.90;;;;;;5076103;28;20209;-84
2023/06/23 01:13:21;;;;;;;13.30;8.40;;;19.10;99.90;;;;;;5075893;28;20216;-84
2023/06/23 01:15:56;;;;;;;12.77;8.57;;;19.10;99.90;;;;;;5058942;28;20308;-83
2023/06/23 01:18:47;;;;;;;12.33;8.33;;;19.10;99.90;;;;;;5076097;28;20212;-82
2023/06/23 01:21:25;;;;;;;12.53;8.40;;;19.10;99.90;;;;;;5075868;28;20628;-83
2023/06/23 01:24:01;;;;;;;9.93;7.80;;;19.00;99.90;;;;;;5059216;28;20286;-83
2023/06/23 01:26:42;;;;;;;12.53;7.90;;;19.00;99.90;;;;;;5093865;28;20284;-83
2023/06/23 01:29:11;;;;;;;11.80;8.37;;;19.00;99.90;;;;;;5059213;28;20588;-84
2023/06/23 01:31:54;;;;;;;13.80;8.57;;;18.90;99.90;;;;;;5058925;28;20312;-83
2023/06/23 01:34:25;;;;;;;11.60;8.43;;;18.80;99.90;;;;;;5075826;28;20189;-83
2023/06/23 01:37:00;;;;;;;16.07;8.70;;;18.80;99.90;;;;;;5075824;28;20258;-86
2023/06/23 01:39:30;;;;;;;14.73;8.30;;;18.80;99.90;;;;;;5059226;28;20221;-86
2023/06/23 01:42:02;;;;;;;11.83;7.90;;;18.80;99.90;;;;;;5058891;28;20578;-86
2023/06/23 01:44:32;;;;;;;12.20;8.10;;;18.80;99.90;;;;;;5058958;28;20550;-85
2023/06/23 01:47:03;;;;;;;11.50;8.40;;;18.80;99.90;;;;;;5055347;28;20263;-85
2023/06/23 01:49:36;;;;;;;11.23;7.83;;;18.70;99.90;;;;;;5073223;28;20182;-85
2023/06/23 01:52:06;;;;;;;14.60;8.63;;;18.70;99.90;;;;;;5073405;28;20178;-85
2023/06/23 01:54:38;;;;;;;12.80;7.97;;;18.70;99.90;;;;;;5072295;28;20232;-85
2023/06/23 01:57:06;;;;;;;12.50;7.80;;;18.60;99.90;;;;;;5072024;28;20196;-85
2023/06/23 01:59:37;;;;;;;10.80;7.90;;;18.60;99.90;;;;;;5055239;28;20646;-85
2023/06/23 02:02:06;;;;;;;10.83;7.70;;;18.60;99.90;;;;;;5071490;28;20249;-85
2023/06/23 02:04:35;;;;;;;12.50;7.67;;;18.60;99.90;;;;;;5055139;28;20194;-85
2023/06/23 02:07:03;;;;;;;10.60;7.83;;;18.60;99.90;;;;;;5055060;28;20197;-84
2023/06/23 02:09:32;;;;;;;11.33;7.47;;;18.60;99.90;;;;;;5072927;28;20625;-84
2023/06/23 02:12:03;;;;;;;11.97;7.80;;;18.50;99.90;;;;;;5054958;28;20721;-84
2023/06/23 02:14:31;;;;;;;9.87;7.33;;;18.50;99.90;;;;;;5071584;28;20244;-84
2023/06/23 02:16:59;;;;;;;11.27;8.27;;;18.50;99.90;;;;;;5054843;28;20248;-84
2023/06/23 02:19:27;;;;;;;10.27;7.57;;;18.50;99.90;;;;;;5071166;28;20577;-84
2023/06/23 02:21:56;;;;;;;11.57;7.73;;;18.40;99.90;;;;;;5071441;28;20298;-84
2023/06/23 02:24:24;;;;;;;11.30;7.73;;;18.40;99.90;;;;;;5071382;28;20186;-84
2023/06/23 02:26:53;;;;;;;14.50;8.00;;;18.40;99.90;;;;;;5070580;28;20218;-84
2023/06/23 02:29:21;;;;;;;10.50;7.40;;;18.30;99.90;;;;;;5071418;28;20691;-84
2023/06/23 02:31:48;;;;;;;10.73;7.53;;;18.40;99.90;;;;;;5071346;28;20218;-84
2023/06/23 02:34:15;;;;;;;12.60;7.90;;;18.30;99.90;;;;;;5071065;28;20197;-84
2023/06/23 02:36:51;;;;;;;11.23;7.50;;;18.30;99.90;;;;;;5071042;28;20283;-84
2023/06/23 02:39:20;;;;;;;9.60;7.27;;;18.40;99.90;;;;;;5071023;28;20236;-85
2023/06/23 02:41:51;;;;;;;14.23;7.43;;;18.30;99.90;;;;;;5070897;28;20264;-85
2023/06/23 02:44:23;;;;;;;10.40;7.13;;;18.30;99.90;;;;;;5072264;28;20638;-85
2023/06/23 02:46:56;;;;;;;9.40;6.83;;;18.30;99.90;;;;;;5070823;28;20233;-85
2023/06/23 02:49:26;;;;;;;13.43;7.50;;;18.40;99.90;;;;;;5072228;28;20181;-85
2023/06/23 02:52:02;;;;;;;10.77;7.43;;;18.40;99.90;;;;;;5054510;28;20214;-85
2023/06/23 02:54:36;;;;;;;11.83;7.50;;;18.30;99.90;;;;;;5072118;28;20670;-84
2023/06/23 02:57:05;;;;;;;11.77;7.60;;;18.30;99.90;;;;;;5072219;28;20642;-85
2023/06/23 02:59:33;;;;;;;10.67;7.00;;;18.40;99.90;;;;;;5070638;28;20206;-84
2023/06/23 03:02:01;;;;;;;11.50;7.40;;;18.50;99.90;;;;;;5070656;28;20232;-84
2023/06/23 03:04:30;;;;;;;9.47;6.60;;;18.50;99.90;;;;;;5072336;28;20191;-86
2023/06/23 03:06:57;;;;;;;12.20;7.00;;;18.50;99.90;;;;;;5070695;28;20194;-85
2023/06/23 03:09:25;;;;;;;11.33;7.27;;;18.50;99.90;;;;;;5070676;28;20289;-85
2023/06/23 03:11:52;;;;;;;12.10;7.07;;;18.60;99.90;;;;;;5053943;28;20275;-84
2023/06/23 03:14:19;;;;;;;10.70;7.40;;;18.60;99.90;;;;;;5070641;28;20198;-84
2023/06/23 03:16:49;;;;;;;9.73;7.10;;;18.60;99.90;;;;;;5070673;28;20639;-84
2023/06/23 03:19:26;;;;;;;11.37;7.10;;;18.70;99.90;;;;;;5072354;28;20248;-85
2023/06/23 03:22:17;;;;;;;11.73;6.87;;;18.70;99.90;;;;;;5070568;28;20265;-85
2023/06/23 03:24:49;;;;;;;11.63;7.23;;;18.70;99.90;;;;;;5071614;28;20672;-85
2023/06/23 03:27:18;;;;;;;10.13;7.07;;;18.60;99.90;;;;;;5071807;28;20179;-85
2023/06/23 03:29:53;;;;;;;11.80;6.73;;;18.70;99.90;;;;;;5070457;28;20255;-84
2023/06/23 03:32:33;;;;;;;11.83;6.60;;;18.80;99.90;;;;;;5070579;28;20190;-84
2023/06/23 03:35:13;;;;;;;10.80;6.73;;;18.90;99.90;;;;;;5054239;28;20579;-84
2023/06/23 03:37:48;;;;;;;9.93;6.60;;;18.80;99.90;;;;;;5072532;28;20535;-85
2023/06/23 03:40:19;;;;;;;11.33;6.80;;;18.90;99.90;;;;;;5057855;28;20209;-85
2023/06/23 03:42:58;;;;;;;11.03;6.53;;;19.00;99.90;;;;;;5074428;28;20210;-85
2023/06/23 03:45:26;;;;;;;9.93;6.47;;;19.00;99.90;;;;;;5057837;28;20217;-85
2023/06/23 03:48:00;;;;;;;9.77;6.33;;;19.10;99.90;;;;;;5074439;28;20241;-86
2023/06/23 03:50:33;;;;;;;8.30;5.93;;;19.20;99.90;;;;;;5074236;28;20239;-86
2023/06/23 03:53:03;;;;;;;9.57;6.20;;;19.30;99.90;;;;;;5074254;28;20193;-85
2023/06/23 03:55:35;;;;;;;7.80;5.57;;;19.30;99.90;;;;;;5074311;28;20321;-85
2023/06/23 03:58:06;;;;;;;10.00;6.10;;;19.50;99.90;;;;;;5074098;28;20193;-85
2023/06/23 04:00:36;;;;;;;7.47;5.50;;;19.50;99.90;;;;;;5073470;28;20249;-85
2023/06/23 04:03:07;;;;;;;7.90;5.67;;;19.60;99.90;;;;;;5057398;28;20248;-85
2023/06/23 04:05:39;;;;;;;8.30;5.70;;;19.60;99.90;;;;;;5073981;28;20214;-85
2023/06/23 04:08:09;;;;;;;9.77;5.93;;;19.70;99.90;;;;;;5075174;28;20269;-85
2023/06/23 04:10:38;;;;;;;8.13;5.53;;;19.70;99.90;;;;;;5075312;28;20225;-85
2023/06/23 04:13:07;;;;;;;11.27;5.77;;;19.70;99.90;;;;;;5075192;28;20197;-85
2023/06/23 04:15:37;;;;;;;9.73;5.87;;;19.80;99.90;;;;;;5073897;28;20209;-84
2023/06/23 04:18:07;;;;;;;9.10;5.50;;;19.80;99.90;;;;;;5074038;28;20206;-86
2023/06/23 04:20:37;;;;;;;12.10;5.83;;;19.90;99.90;;;;;;5073636;28;20217;-85
2023/06/23 04:23:05;;;;;;;9.73;5.40;;;19.90;99.90;;;;;;5056954;28;20717;-85
2023/06/23 04:25:32;;;;;;;7.77;5.30;;;19.90;99.90;;;;;;5057065;28;20214;-85
2023/06/23 04:28:03;;;;;;;8.10;5.47;;;19.90;99.90;;;;;;5073698;28;20210;-86
2023/06/23 04:30:34;;;;;;;8.53;5.10;;;19.90;99.90;;;;;;5057255;28;20214;-85
2023/06/23 04:33:01;;;;;;;10.53;5.77;;;19.90;99.90;;;;;;5057433;28;20699;-86
2023/06/23 04:35:28;;;;;;;6.93;5.10;;;20.00;99.90;;;;;;5073514;28;20218;-85
2023/06/23 04:38:01;;;;;;;8.20;5.10;;;20.10;99.90;;;;;;5074777;28;20193;-85
2023/06/23 04:40:47;;;;;;;9.00;5.17;;;20.10;99.90;;;;;;5057224;28;20743;-85
2023/06/23 04:43:22;;;;;;;7.20;4.50;;;20.20;99.90;;;;;;5073298;28;20756;-85
2023/06/23 04:46:19;;;;;;;8.07;5.03;;;20.20;99.90;;;;;;5057247;28;20222;-85
2023/06/23 04:48:50;;;;;;;6.63;4.60;;;20.40;99.90;;;;;;5034222;28;20198;-85
2023/06/23 04:51:21;;;;;;;8.27;4.73;;;20.60;99.90;;;;;;5019062;28;20332;-87
2023/06/23 04:54:02;;;;;;;6.67;4.70;;;20.70;99.90;;;;;;5019011;28;20294;-85
2023/06/23 04:56:33;;;;;;;7.67;5.30;;;20.80;99.90;;;;;;5035322;28;20249;-84
2023/06/23 04:59:04;;;;;;;7.40;4.37;;;20.90;99.90;;;;;;5035246;28;20581;-85
2023/06/23 05:01:33;;;;;;;7.47;4.33;;;21.00;99.90;;;;;;5018859;28;20642;-85
2023/06/23 05:04:03;;;;;;;8.07;4.20;;;21.10;99.90;;;;;;5035063;28;20272;-85
2023/06/23 05:06:33;;;;;;;5.90;3.93;;;21.20;99.90;;;;;;5035112;28;20244;-86
2023/06/23 05:09:01;;;;;;;8.27;4.60;;;21.30;99.90;;;;;;5035032;28;20218;-85
2023/06/23 05:11:29;;;;;;;8.50;3.80;;;21.40;99.90;;;;;;5051458;28;20636;-84
2023/06/23 05:13:58;;;;;;;7.70;3.80;;;21.50;99.90;;;;;;5034955;28;20199;-84
2023/06/23 05:16:25;;;;;;;10.07;3.77;;;21.50;99.90;;;;;;5034687;28;20695;-83
2023/06/23 05:18:54;;;;;;;5.40;3.90;;;21.70;99.90;;;;;;5035111;28;20202;-82
2023/06/23 05:21:23;;;;;;;5.80;3.97;;;21.80;99.90;;;;;;5034813;28;20713;-84
2023/06/23 05:23:53;;;;;;;6.33;3.67;;;21.80;99.90;;;;;;5034777;28;20227;-84
2023/06/23 05:26:22;;;;;;;6.10;3.70;;;21.90;99.90;;;;;;5057394;28;20217;-84
2023/06/23 05:28:53;;;;;;;7.50;3.77;;;22.00;99.90;;;;;;5075982;28;20217;-84
2023/06/23 05:31:22;;;;;;;6.63;3.90;;;22.00;99.90;;;;;;5059339;28;20283;-85
2023/06/23 05:33:51;;;;;;;6.73;3.80;;;22.00;99.90;;;;;;5075618;28;20197;-83
2023/06/23 05:36:20;;;;;;;6.87;3.73;;;22.10;99.90;;;;;;5094033;28;20217;-85
2023/06/23 05:38:50;;;;;;;5.87;3.60;;;22.10;99.90;;;;;;5093863;28;20708;-85
2023/06/23 05:41:17;;;;;;;7.77;3.60;;;22.10;99.90;;;;;;5093613;28;20607;-80
2023/06/23 05:43:44;;;;;;;5.60;3.27;;;22.20;99.90;;;;;;5075521;28;20244;-85
2023/06/23 05:46:14;;;;;;;7.73;3.47;;;22.30;99.90;;;;;;5093333;28;20236;-83
2023/06/23 05:49:07;;;;;;;5.27;3.40;;;22.40;99.90;;;;;;5075652;28;20542;-84
2023/06/23 05:51:37;;;;;;;5.93;3.57;;;22.60;99.90;;;;;;5075166;28;20237;-81
2023/06/23 05:54:10;;;;;;;4.53;3.40;;;22.70;99.90;;;;;;5093644;28;20559;-83
2023/06/23 05:56:44;;;;;;;5.37;3.60;;;22.80;99.90;;;;;;5075515;28;20221;-80
2023/06/23 05:59:25;;;;;;;4.83;3.50;;;22.90;99.90;;;;;;5075587;28;20177;-82
2023/06/23 06:01:57;;;;;;;7.18;3.60;;;23.00;99.90;;;;;;5074985;28;20249;-81
2023/06/23 06:04:28;;;;;;;6.20;3.40;;;23.10;99.90;;;;;;5058826;28;20213;-80
2023/06/23 06:06:57;;;;;;;5.78;3.65;;;23.20;99.90;;;;;;5093185;28;20289;-79
2023/06/23 06:09:28;;;;;;;6.75;3.88;;;23.30;99.90;;;;;;5075586;28;20276;-84
2023/06/23 06:11:56;;;;;;;7.05;3.80;;;23.50;99.90;;;;;;5093330;28;20330;-83
2023/06/23 06:14:26;;;;;;;6.35;3.75;;;23.50;99.90;;;;;;5058517;28;20200;-82
2023/06/23 06:16:55;;;;;;;6.75;3.80;;;23.60;99.90;;;;;;5093260;28;20205;-81
2023/06/23 06:19:24;;;;;;;5.78;3.45;;;23.60;99.90;;;;;;5074731;28;20361;-83
2023/06/23 06:21:54;;;;;;;6.03;3.53;;;23.70;99.90;;;;;;5074925;28;20241;-81
2023/06/23 06:24:23;;;;;;;5.30;3.50;;;23.70;99.90;;;;;;5074608;28;20221;-82
2023/06/23 06:26:56;;;;;;;7.78;3.90;;;23.80;99.90;;;;;;5074865;28;20237;-82
2023/06/23 06:29:24;;;;;;;6.13;3.80;;;23.80;99.90;;;;;;5058335;28;20532;-83
2023/06/23 06:31:53;;;;;;;7.70;3.60;;;23.80;99.90;;;;;;5057689;28;20233;-82
2023/06/23 06:34:24;;;;;;;5.95;3.50;;;23.80;99.90;;;;;;5092658;28;20185;-82
2023/06/23 06:36:53;;;;;;;5.97;3.85;;;23.80;99.90;;;;;;5074476;28;20692;-83
2023/06/23 06:39:21;;;;;;;8.60;4.10;;;23.70;99.90;;;;;;5074179;28;20189;-82
2023/06/23 06:41:50;;;;;;;6.07;3.92;;;23.80;99.90;;;;;;5092797;28;20217;-82
2023/06/23 06:44:17;;;;;;;7.28;4.07;;;23.80;99.90;;;;;;5092661;28;20237;-83
2023/06/23 06:46:45;;;;;;;5.47;4.05;;;23.70;99.90;;;;;;5054415;28;20248;-82
2023/06/23 06:49:17;;;;;;;7.55;4.18;;;23.80;99.90;;;;;;5070838;28;20244;-83
2023/06/23 06:51:46;;;;;;;11.57;4.35;;;23.80;99.90;;;;;;5072114;28;20684;-81
2023/06/23 06:54:16;;;;;;;12.48;5.10;;;23.80;99.90;;;;;;5072318;28;20193;-81
2023/06/23 06:56:46;;;;;;;7.50;4.50;;;23.80;99.90;;;;;;5070442;28;20685;-82
2023/06/23 06:59:13;;;;;;;7.82;4.90;;;23.70;99.90;;;;;;5070776;28;20190;-82
2023/06/23 07:01:42;;;;;;;8.43;5.50;;;23.70;99.90;;;;;;5037717;28;20217;-82
2023/06/23 07:04:09;;;;;;;8.07;5.20;;;23.60;99.90;;;;;;5070730;28;20217;-83
2023/06/23 07:06:37;;;;;;;9.60;5.65;;;23.60;99.90;;;;;;5071004;28;20210;-80
2023/06/23 07:09:04;;;;;;;7.18;5.65;;;23.60;99.90;;;;;;5070600;28;20198;-82
2023/06/23 07:11:31;;;;;;;11.75;6.25;;;23.70;99.90;;;;;;5070430;28;20221;-82
2023/06/23 07:13:59;;;;;;;8.10;6.13;;;23.70;99.90;;;;;;5071040;28;20205;-80
2023/06/23 07:16:30;;;;;;;9.50;5.65;;;23.70;99.90;;;;;;5072046;28;20208;-80
2023/06/23 07:18:57;;;;;;;10.33;5.47;;;23.80;99.90;;;;;;5070557;28;20367;-82
2023/06/23 07:21:25;;;;;;;10.48;6.20;;;23.90;99.90;;;;;;5070735;28;20268;-82
2023/06/23 07:23:52;;;;;;;8.98;5.85;;;23.80;99.90;;;;;;5070519;28;20210;-83
2023/06/23 07:26:19;;;;;;;10.23;5.88;;;23.80;99.90;;;;;;5054199;28;20217;-82
2023/06/23 07:28:46;;;;;;;9.82;6.00;;;23.80;99.90;;;;;;5071948;28;20198;-82
2023/06/23 07:31:13;;;;;;;9.38;5.70;;;23.70;99.90;;;;;;5071642;28;20206;-81
2023/06/23 07:33:41;;;;;;;9.15;5.80;;;23.80;99.90;;;;;;5070382;28;20190;-80
2023/06/23 07:36:08;;;;;;;8.55;5.63;;;23.80;99.90;;;;;;5070420;28;20214;-82
2023/06/23 07:38:35;;;;;;;9.18;6.32;;;23.70;99.90;;;;;;5071818;28;20228;-81
2023/06/23 07:41:04;;;;;;;8.82;5.85;;;23.60;99.90;;;;;;5070202;28;20302;-83
2023/06/23 07:43:31;;;;;;;10.82;6.18;;;23.60;99.90;;;;;;5070179;28;20218;-82
2023/06/23 07:45:58;;;;;;;12.98;6.75;;;23.60;99.90;;;;;;5073146;28;20210;-82
2023/06/23 07:48:25;;;;;;;8.45;6.20;;;23.70;99.90;;;;;;5091782;28;20231;-82
2023/06/23 07:50:53;;;;;;;8.43;6.10;;;23.70;99.90;;;;;;5073505;28;20285;-81
2023/06/23 07:53:20;;;;;;;7.60;5.80;;;23.80;99.90;;;;;;5073516;28;20323;-81
2023/06/23 07:55:47;;;;;;;10.60;6.30;;;23.70;99.90;;;;;;5091946;28;20220;-81
2023/06/23 07:58:14;;;;;;;12.65;6.72;;;23.80;99.90;;;;;;5073360;28;20202;-81
2023/06/23 08:00:41;;;;;;;9.00;6.85;;;23.80;99.90;;;;;;5073513;28;20218;-82
2023/06/23 08:03:08;;;;;;;10.38;7.00;;;23.70;99.90;;;;;;5073311;28;20221;-81
2023/06/23 08:05:37;;;;;;;10.07;6.90;;;23.60;99.90;;;;;;5073665;28;20229;-82
2023/06/23 08:08:05;;;;;;;12.57;7.00;;;23.60;99.90;;;;;;5056779;28;20649;-83
2023/06/23 08:10:32;;;;;;;10.50;7.00;;;23.60;99.90;;;;;;5073433;28;20224;-82
2023/06/23 08:12:59;;;;;;;11.05;6.85;;;23.60;99.90;;;;;;5091558;28;20691;-81
2023/06/23 08:15:27;;;;;;;13.80;7.55;;;23.50;99.90;;;;;;5091545;28;20233;-81
2023/06/23 08:17:54;;;;;;;10.07;7.10;;;23.50;99.90;;;;;;5073324;28;20198;-82
2023/06/23 08:20:22;;;;;;;9.45;7.40;;;23.30;99.90;;;;;;5073576;28;20217;-81
2023/06/23 08:22:50;;;;;;;9.98;7.60;;;23.30;99.90;;;;;;5091318;28;20196;-81
2023/06/23 08:25:17;;;;;;;11.95;7.70;;;23.30;99.90;;;;;;5075604;28;20272;-81
2023/06/23 08:27:44;;;;;;;10.65;7.38;;;23.20;99.90;;;;;;5076827;28;20189;-81
2023/06/23 08:30:14;;;;;;;10.82;7.75;;;23.20;99.90;;;;;;5076671;28;20616;-81
2023/06/23 08:32:41;;;;;;;11.00;7.88;;;23.10;99.90;;;;;;5076713;28;20202;-81
2023/06/23 08:35:09;;;;;;;12.43;7.93;;;23.20;99.90;;;;;;5076614;28;20221;-81
2023/06/23 08:37:39;;;;;;;13.77;7.90;;;23.20;99.90;;;;;;5094840;28;20269;-81
2023/06/23 08:40:07;;;;;;;12.90;7.65;;;23.10;99.90;;;;;;5094814;28;20206;-80
2023/06/23 08:42:34;;;;;;;14.45;8.38;;;23.00;99.90;;;;;;5094800;28;20669;-81
2023/06/23 08:45:06;;;;;;;13.45;8.98;;;22.90;99.90;;;;;;5076267;28;20225;-81
2023/06/23 08:47:41;;;;;;;12.60;8.70;;;22.70;99.90;;;;;;5094585;28;20582;-82
2023/06/23 08:50:09;;;;;;;13.67;9.50;;;22.50;99.90;;;;;;5076618;28;20262;-81
2023/06/23 08:52:36;;;;;;;14.90;9.60;;;22.30;99.90;;;;;;5076550;28;20192;-81
2023/06/23 08:55:04;;;;;;;16.03;10.53;;;22.10;99.90;;;;;;5076194;28;20209;-82
2023/06/23 08:57:32;;;;;;;14.67;10.57;;;21.90;99.90;;;;;;5076110;28;20194;-82
2023/06/23 08:59:59;;;;;;;15.77;10.57;;;21.70;99.90;;;;;;5075911;28;20274;-82
2023/06/23 09:02:27;;;;;;;15.67;10.77;;;21.60;99.90;;;;;;5076038;28;20674;-81
2023/06/23 09:04:54;;;;;;;15.40;10.83;;;21.50;99.90;;;;;;5094117;28;20231;-82
2023/06/23 09:07:22;;;;;;;15.77;11.00;;;21.40;99.90;;;;;;5094393;28;20602;-81
2023/06/23 09:09:49;;;;;;;18.83;10.63;;;21.20;99.90;;;;;;5075964;28;20845;-82
2023/06/23 09:12:21;;;;;;;19.57;11.10;;;21.00;99.90;;;;;;5094267;28;20713;-82
2023/06/23 09:14:50;;;;;;;19.67;11.33;;;20.90;99.90;;;;;;5076132;28;20201;-81
2023/06/23 09:17:19;;;;;;;16.67;12.37;;;20.90;99.90;;;;;;5075970;28;20239;-82
2023/06/23 09:19:50;;;;;;;15.33;11.60;;;20.90;99.90;;;;;;5076310;28;20243;-82
2023/06/23 09:22:44;;;;;;;18.53;12.47;;;20.70;99.90;;;;;;5079988;28;20180;-82
2023/06/23 09:25:38;;;;;;;19.40;12.30;;;20.60;99.90;;;;;;5060522;28;20687;-82
2023/06/23 09:28:05;;;;;;;18.60;12.40;;;20.50;99.90;;;;;;5080073;28;20691;-83
2023/06/23 09:30:36;;;;;;;20.13;13.20;;;20.50;99.90;;;;;;5080158;28;20288;-82
2023/06/23 09:33:05;;;;;;;22.60;14.10;;;20.40;99.90;;;;;;5079597;28;20288;-82
2023/06/23 09:35:34;;;;;;;19.63;14.07;;;20.30;99.90;;;;;;5078990;28;20245;-83
2023/06/23 09:38:02;;;;;;;21.93;14.57;;;20.30;99.90;;;;;;5079589;28;20609;-84
2023/06/23 09:40:32;;;;;;;22.90;16.07;;;20.30;99.90;;;;;;5077741;28;20814;-84
2023/06/23 09:43:00;;;;;;;26.77;15.83;;;20.30;99.90;;;;;;5059235;28;20632;-84
2023/06/23 09:45:27;;;;;;;22.07;15.93;;;20.30;99.90;;;;;;5093630;28;20556;-83
2023/06/23 09:47:54;;;;;;;22.67;16.10;;;20.40;99.90;;;;;;5093574;28;20252;-84
2023/06/23 09:50:22;;;;;;;24.67;17.07;;;20.40;99.90;;;;;;5075196;28;20217;-83
2023/06/23 09:53:05;;;;;;;24.60;16.53;;;20.40;99.90;;;;;;5075503;28;20228;-82
2023/06/23 09:55:32;;;;;;;27.03;17.30;;;20.40;99.90;;;;;;5058240;28;20228;-83
2023/06/23 09:58:03;;;;;;;30.63;17.77;;;20.50;99.90;;;;;;5058503;28;20205;-83
2023/06/23 10:00:31;;;;;;;24.70;17.73;;;20.40;99.90;;;;;;5075400;28;20239;-83
2023/06/23 10:03:03;;;;;;;30.23;18.90;;;20.50;99.90;;;;;;5093792;28;20190;-82
2023/06/23 10:05:34;;;;;;;31.27;20.30;;;20.50;99.90;;;;;;5075110;28;20758;-82
2023/06/23 10:08:12;;;;;;;28.87;20.33;;;20.20;99.90;;;;;;5093043;28;20193;-82
2023/06/23 10:10:45;;;;;;;30.00;21.70;;;20.20;99.90;;;;;;5093206;28;20676;-82
2023/06/23 10:13:13;;;;;;;28.47;20.10;;;20.10;99.90;;;;;;5074859;28;20200;-82
2023/06/23 10:15:41;;;;;;;29.27;19.57;;;20.00;99.90;;;;;;5074318;28;20553;-82
2023/06/23 10:18:11;;;;;;;31.57;19.90;;;20.00;99.90;;;;;;5092925;28;20181;-82
2023/06/23 10:20:39;;;;;;;24.73;18.83;;;19.90;99.90;;;;;;5074562;28;20249;-82
2023/06/23 10:23:10;;;;;;;26.47;19.57;;;19.90;99.90;;;;;;5092782;28;20196;-82
2023/06/23 10:25:37;;;;;;;25.17;19.00;;;19.80;99.90;;;;;;5074330;28;20221;-81
2023/06/23 10:28:10;;;;;;;29.60;19.93;;;19.80;99.90;;;;;;5093111;28;20190;-82
2023/06/23 10:30:42;;;;;;;27.57;19.17;;;19.90;99.90;;;;;;5092736;28;20262;-81
2023/06/23 10:33:16;;;;;;;28.90;20.00;;;20.00;99.90;;;;;;5074324;28;20219;-82
2023/06/23 10:35:47;;;;;;;31.07;19.80;;;20.00;99.90;;;;;;5074711;28;20270;-82
2023/06/23 10:38:22;;;;;;;24.83;18.80;;;20.10;99.90;;;;;;5075069;28;20258;-82
2023/06/23 10:40:58;;;;;;;26.33;18.63;;;20.30;99.90;;;;;;5058457;28;20213;-82
2023/06/23 10:43:59;;;;;;;25.13;18.37;;;20.50;99.90;;;;;;5074201;28;20243;-82
2023/06/23 10:46:26;;;;;;;26.33;18.40;;;20.60;99.90;;;;;;5009585;28;20243;-82
2023/06/23 10:48:54;;;;;;;29.60;17.93;;;20.70;99.90;;;;;;5010127;28;20215;-82
2023/06/23 10:51:25;;;;;;;23.77;17.30;;;20.80;99.90;;;;;;5026570;28;20584;-82
2023/06/23 10:54:01;;;;;;;24.47;17.77;;;21.00;99.90;;;;;;5010147;28;20283;-83
2023/06/23 10:56:30;;;;;;;24.50;17.30;;;21.10;99.90;;;;;;4993947;28;20247;-83
2023/06/23 10:58:57;;;;;;;23.93;17.30;;;21.30;99.90;;;;;;5010128;28;20196;-82
2023/06/23 11:01:26;;;;;;;27.07;17.07;;;21.20;99.90;;;;;;4993679;28;20216;-82
2023/06/23 11:03:58;;;;;;;24.10;16.00;;;21.10;99.90;;;;;;4977703;28;20232;-82
2023/06/23 11:06:38;;;;;;;24.10;16.50;;;21.00;99.90;;;;;;5010053;28;20278;-81
2023/06/23 11:09:58;;;;;;;23.03;15.57;;;21.10;99.90;;;;;;5010024;28;20207;-81
2023/06/23 11:12:39;;;;;;;22.57;15.07;;;21.20;99.90;;;;;;5010069;28;20195;-82
2023/06/23 11:15:09;;;;;;;23.80;15.17;;;21.50;99.90;;;;;;4993078;28;20804;-81
2023/06/23 11:17:41;;;;;;;20.83;15.47;;;21.70;99.90;;;;;;5009874;28;20234;-81
2023/06/23 11:20:32;;;;;;;21.73;14.70;;;21.90;99.90;;;;;;5026278;28;20651;-81
2023/06/23 11:23:00;;;;;;;22.93;15.73;;;22.10;99.90;;;;;;4992253;28;20215;-82
2023/06/23 11:25:32;;;;;;;18.27;14.37;;;22.30;99.90;;;;;;5029479;28;20235;-83
2023/06/23 11:28:33;;;;;;;20.70;14.60;;;22.50;99.90;;;;;;5029375;28;20200;-83
2023/06/23 11:31:03;;;;;;;19.53;13.70;;;22.80;99.90;;;;;;5029565;28;20609;-83
2023/06/23 11:33:32;;;;;;;18.50;13.10;;;23.10;99.90;;;;;;5013021;28;20290;-83
2023/06/23 11:36:07;;;;;;;21.27;13.55;;;23.60;99.90;;;;;;5013001;28;20221;-83
2023/06/23 11:38:36;;;;;;;17.73;13.18;;;24.20;99.90;;;;;;4996506;28;20206;-83
2023/06/23 11:41:07;;;;;;;20.00;12.43;;;24.50;99.90;;;;;;5013195;28;20726;-83
2023/06/23 11:43:38;;;;;;;19.70;12.85;;;25.00;99.90;;;;;;5012712;28;20203;-83
2023/06/23 11:46:09;;;;;;;17.85;12.60;;;25.40;99.90;;;;;;5029003;28;20218;-82
2023/06/23 11:48:36;;;;;;;17.73;13.02;;;25.60;99.90;;;;;;5029455;28;20195;-83
2023/06/23 11:51:06;;;;;;;17.13;11.68;;;25.60;99.90;;;;;;5012742;28;20223;-83
2023/06/23 11:53:34;;;;;;;14.23;11.75;;;26.30;99.90;;;;;;5029270;28;20250;-83
2023/06/23 11:56:02;;;;;;;15.32;10.88;;;26.90;99.90;;;;;;5029183;28;20278;-83
2023/06/23 11:58:32;;;;;;;15.40;11.13;;;27.40;99.90;;;;;;5014145;28;20223;-80
2023/06/23 12:01:00;;;;;;;15.10;11.38;;;27.70;99.90;;;;;;5070424;28;20217;-82
2023/06/23 12:03:37;;;;;;;13.30;10.85;;;27.90;99.90;;;;;;5077293;28;20229;-80
2023/06/23 12:06:04;;;;;;;15.55;10.88;;;27.80;99.90;;;;;;5077445;28;20232;-81
2023/06/23 12:08:32;;;;;;;14.65;11.77;;;27.80;99.90;;;;;;5060697;28;20197;-82
2023/06/23 12:10:59;;;;;;;14.80;10.07;;;27.50;99.90;;;;;;5076940;28;20708;-81
2023/06/23 12:13:28;;;;;;;16.70;10.50;;;27.80;99.90;;;;;;5076778;28;20209;-80
2023/06/23 12:15:55;;;;;;;15.75;10.25;;;28.10;99.90;;;;;;5095100;28;20209;-82
2023/06/23 12:18:24;;;;;;;13.68;10.73;;;28.70;99.90;;;;;;5076920;28;20687;-82
2023/06/23 12:20:51;;;;;;;14.73;10.55;;;29.20;99.90;;;;;;5076743;28;20274;-81
2023/06/23 12:23:18;;;;;;;13.82;10.65;;;29.50;99.90;;;;;;5095342;28;20633;-82
2023/06/23 12:25:49;;;;;;;18.98;10.18;;;29.80;99.90;;;;;;5076972;28;20225;-81
2023/06/23 12:28:20;;;;;;;13.98;10.20;;;30.10;99.90;;;;;;5077023;28;20197;-82
2023/06/23 12:30:50;;;;;;;17.38;10.40;;;30.40;99.90;;;;;;5094870;28;20549;-81
2023/06/23 12:33:21;;;;;;;11.07;9.18;;;30.80;99.90;;;;;;5060359;28;20194;-80
2023/06/23 12:36:00;;;;;;;13.07;10.60;;;30.90;99.90;;;;;;5059948;28;20213;-81
2023/06/23 12:38:28;;;;;;;13.48;9.40;;;31.10;99.90;;;;;;5076593;28;20305;-82
2023/06/23 12:41:12;;;;;;;12.85;9.15;;;31.20;99.90;;;;;;5077009;28;20218;-81
2023/06/23 12:43:40;;;;;;;12.15;9.20;;;31.90;99.90;;;;;;5076862;28;20247;-82
2023/06/23 12:46:10;;;;;;;11.85;9.30;;;32.20;99.90;;;;;;5094583;28;20272;-81
2023/06/23 12:48:43;;;;;;;11.90;9.95;;;32.10;99.90;;;;;;5076381;28;20205;-82
2023/06/23 12:51:11;;;;;;;12.25;9.65;;;31.00;99.90;;;;;;5094518;28;20694;-81
2023/06/23 12:53:38;;;;;;;15.00;9.60;;;30.90;99.90;;;;;;5076261;28;20193;-80
2023/06/23 12:56:06;;;;;;;12.55;9.70;;;30.90;99.90;;;;;;5076170;28;20209;-80